Time;durP1;ratioP1;P1;durP2;ratioP2;P2;SDS_P1;SDS_P2;PMS_P1;PMS_P2;Temp;Humidity;BMP_temperature;BMP_pressure;BME280_temperature;BME280_humidity;BME280_pressure;Samples;Min_cycle;Max_cycle;Signal;HPM_P1;HPM_P2
2022/01/15 00:00:23;;;;;;;52.72;19.20;;;1.60;81.70;;;;;;5018574;28;20212;-76
2022/01/15 00:02:52;;;;;;;42.65;18.83;;;1.60;81.90;;;;;;5018667;28;20206;-76
2022/01/15 00:05:20;;;;;;;42.17;19.33;;;1.70;81.70;;;;;;5015314;28;20213;-76
2022/01/15 00:07:48;;;;;;;37.72;18.33;;;1.80;81.80;;;;;;5018797;28;20237;-76
2022/01/15 00:10:20;;;;;;;58.45;18.58;;;1.90;82.00;;;;;;5018524;28;20609;-76
2022/01/15 00:12:48;;;;;;;47.78;18.23;;;1.90;82.00;;;;;;5021331;28;20197;-76
2022/01/15 00:15:21;;;;;;;50.88;20.17;;;1.90;81.70;;;;;;5023089;28;20267;-76
2022/01/15 00:17:55;;;;;;;36.47;17.10;;;2.00;81.80;;;;;;5016606;28;20900;-76
2022/01/15 00:20:24;;;;;;;39.67;15.75;;;2.00;81.80;;;;;;5021466;28;20201;-75
2022/01/15 00:22:54;;;;;;;36.97;16.67;;;2.00;81.70;;;;;;5006194;28;20205;-76
2022/01/15 00:25:26;;;;;;;33.47;15.20;;;2.00;81.80;;;;;;5019803;28;20224;-76
2022/01/15 00:27:54;;;;;;;39.15;15.50;;;2.00;81.80;;;;;;5014563;28;20275;-75
2022/01/15 00:30:23;;;;;;;31.35;14.73;;;2.10;81.80;;;;;;5020531;28;20594;-76
2022/01/15 00:32:52;;;;;;;35.22;15.65;;;2.10;81.80;;;;;;5014113;28;20262;-76
2022/01/15 00:35:23;;;;;;;39.50;16.67;;;2.10;82.00;;;;;;5016174;28;20630;-76
2022/01/15 00:37:51;;;;;;;29.15;13.45;;;2.20;82.00;;;;;;5018750;28;20221;-76
2022/01/15 00:40:21;;;;;;;31.55;14.20;;;2.20;82.00;;;;;;5017421;28;20264;-76
2022/01/15 00:42:50;;;;;;;29.08;13.15;;;2.30;81.90;;;;;;5018689;28;20205;-76
2022/01/15 00:45:21;;;;;;;24.92;12.25;;;2.30;81.90;;;;;;5018831;28;20205;-75
2022/01/15 00:47:50;;;;;;;28.92;14.20;;;2.30;81.90;;;;;;5018984;28;20247;-75
2022/01/15 00:50:19;;;;;;;26.92;12.65;;;2.30;82.00;;;;;;5016094;28;20268;-76
2022/01/15 00:52:47;;;;;;;30.08;13.05;;;2.30;82.20;;;;;;5014278;28;20221;-76
2022/01/15 00:55:17;;;;;;;40.08;19.48;;;2.40;82.30;;;;;;5013872;28;20204;-76
2022/01/15 00:57:46;;;;;;;43.60;17.25;;;2.50;82.30;;;;;;5017577;28;20226;-76
2022/01/15 01:00:19;;;;;;;30.40;14.48;;;2.50;82.30;;;;;;5003626;28;20208;-75
2022/01/15 01:02:48;;;;;;;33.58;14.85;;;2.60;82.30;;;;;;5014542;28;20201;-76
2022/01/15 01:05:17;;;;;;;31.27;13.32;;;2.70;82.20;;;;;;5019630;28;20205;-76
2022/01/15 01:07:45;;;;;;;32.90;13.55;;;2.70;82.20;;;;;;5020395;28;21048;-76
2022/01/15 01:10:37;;;;;;;23.80;12.00;;;2.80;82.20;;;;;;5013971;28;20197;-76
2022/01/15 01:13:17;;;;;;;27.95;12.35;;;2.80;82.10;;;;;;5018942;28;20213;-76
2022/01/15 01:24:16;;;;;;;32.80;14.27;;;2.90;82.00;;;;;;4947022;28;20725;-76
2022/01/15 01:26:48;;;;;;;38.50;16.30;;;2.80;81.80;;;;;;5020054;28;20204;-76
2022/01/15 01:29:27;;;;;;;33.25;15.18;;;2.80;81.90;;;;;;5011398;28;20309;-76
2022/01/15 01:32:02;;;;;;;31.33;13.73;;;2.80;82.00;;;;;;5015485;28;20293;-76
2022/01/15 01:34:33;;;;;;;22.63;10.85;;;2.80;82.00;;;;;;5017133;28;20210;-76
2022/01/15 01:37:08;;;;;;;32.08;12.50;;;2.80;81.90;;;;;;5016366;28;20229;-76
2022/01/15 01:39:43;;;;;;;36.65;13.90;;;2.80;81.90;;;;;;5014610;28;20252;-76
2022/01/15 01:42:29;;;;;;;26.20;12.13;;;2.80;82.00;;;;;;5015199;28;20200;-76
2022/01/15 01:45:05;;;;;;;31.80;14.55;;;2.90;82.10;;;;;;5013981;28;21081;-76
2022/01/15 01:47:39;;;;;;;31.75;15.05;;;2.90;82.20;;;;;;5015201;28;20225;-76
2022/01/15 01:50:11;;;;;;;26.30;14.52;;;3.00;82.20;;;;;;5018622;28;20584;-76
2022/01/15 01:52:40;;;;;;;41.17;18.95;;;3.00;82.10;;;;;;5016659;28;20687;-76
2022/01/15 01:55:09;;;;;;;35.15;15.73;;;3.00;82.00;;;;;;5017183;28;20193;-76
2022/01/15 01:57:37;;;;;;;29.65;13.23;;;3.00;82.00;;;;;;5016088;28;20621;-76
2022/01/15 02:00:09;;;;;;;32.70;14.98;;;3.00;82.00;;;;;;5016124;28;20259;-76
2022/01/15 02:02:45;;;;;;;39.13;14.40;;;3.00;82.00;;;;;;5015265;28;20205;-76
2022/01/15 02:05:14;;;;;;;28.77;13.60;;;3.00;82.00;;;;;;5011509;28;20292;-75
2022/01/15 02:07:43;;;;;;;39.83;14.85;;;3.00;82.10;;;;;;5014356;28;20260;-76
2022/01/15 02:10:13;;;;;;;42.97;15.82;;;3.00;82.00;;;;;;5017269;28;20238;-76
2022/01/15 02:12:42;;;;;;;33.88;14.82;;;3.00;82.00;;;;;;5017830;28;20255;-76
2022/01/15 02:15:13;;;;;;;27.25;14.05;;;3.00;81.90;;;;;;5015720;28;20217;-76
2022/01/15 02:17:42;;;;;;;25.08;11.40;;;3.00;82.00;;;;;;5012120;28;20226;-76
2022/01/15 02:20:35;;;;;;;28.50;12.55;;;3.00;82.00;;;;;;5015693;28;20197;-76
2022/01/15 02:25:54;;;;;;;37.45;14.50;;;3.00;82.10;;;;;;5021338;28;20213;-76
2022/01/15 02:28:24;;;;;;;36.30;13.30;;;3.00;82.10;;;;;;5021534;28;20225;-76
2022/01/15 02:30:53;;;;;;;36.83;14.45;;;3.00;81.90;;;;;;5019164;28;20268;-76
2022/01/15 02:33:22;;;;;;;28.30;14.73;;;2.90;82.00;;;;;;5022579;28;20229;-76
2022/01/15 02:35:52;;;;;;;23.70;12.50;;;2.90;81.90;;;;;;5016537;28;20678;-76
2022/01/15 02:38:20;;;;;;;25.35;11.38;;;2.90;82.10;;;;;;5019509;28;20225;-76
2022/01/15 02:40:49;;;;;;;24.88;12.70;;;2.90;82.30;;;;;;5016029;28;20204;-76
2022/01/15 02:43:20;;;;;;;28.17;15.07;;;3.00;82.40;;;;;;5017566;28;20255;-76
2022/01/15 02:45:54;;;;;;;33.08;17.77;;;3.00;82.20;;;;;;5013585;28;20237;-75
2022/01/15 02:48:25;;;;;;;34.22;15.80;;;3.00;82.20;;;;;;5018801;28;20232;-76
2022/01/15 02:50:55;;;;;;;26.00;13.45;;;3.00;82.20;;;;;;5018947;28;20216;-76
2022/01/15 02:53:23;;;;;;;26.23;12.88;;;3.10;82.30;;;;;;5019816;28;20629;-76
2022/01/15 02:55:53;;;;;;;26.45;11.60;;;3.10;82.30;;;;;;5019367;28;20213;-75
2022/01/15 02:58:23;;;;;;;24.58;12.27;;;3.10;82.30;;;;;;5019510;28;20806;-76
2022/01/15 03:00:52;;;;;;;25.80;11.25;;;3.10;82.30;;;;;;5016947;28;20301;-76
2022/01/15 03:03:21;;;;;;;25.80;12.68;;;3.20;82.30;;;;;;5017440;28;20734;-76
2022/01/15 03:05:49;;;;;;;24.90;11.10;;;3.20;82.40;;;;;;5020323;28;20209;-76
2022/01/15 03:08:18;;;;;;;25.10;12.15;;;3.20;82.40;;;;;;5019468;28;20225;-76
2022/01/15 03:10:46;;;;;;;26.67;12.43;;;3.20;82.30;;;;;;5018543;28;20267;-76
2022/01/15 03:13:14;;;;;;;30.25;13.50;;;3.20;82.30;;;;;;5019810;28;20252;-76
2022/01/15 03:15:43;;;;;;;30.10;13.93;;;3.30;82.20;;;;;;5021506;28;20271;-76
2022/01/15 03:18:10;;;;;;;25.23;13.02;;;3.30;82.30;;;;;;5020861;28;20267;-76
2022/01/15 03:20:39;;;;;;;29.85;13.55;;;3.30;82.30;;;;;;5021025;28;20275;-76
2022/01/15 03:23:06;;;;;;;28.20;14.00;;;3.30;82.20;;;;;;5021894;28;20255;-76
2022/01/15 03:25:36;;;;;;;29.88;14.00;;;3.30;82.10;;;;;;5018907;28;20209;-76
2022/01/15 03:28:04;;;;;;;28.27;13.15;;;3.20;81.90;;;;;;5023331;28;20224;-76
2022/01/15 03:30:32;;;;;;;23.98;12.15;;;3.20;82.10;;;;;;5019344;28;20225;-76
2022/01/15 03:33:00;;;;;;;33.08;13.18;;;3.20;82.10;;;;;;5016834;28;20210;-76
2022/01/15 03:35:28;;;;;;;31.25;14.38;;;3.20;82.10;;;;;;5019622;28;20204;-76
2022/01/15 03:37:56;;;;;;;30.30;13.75;;;3.20;82.20;;;;;;5014466;28;20268;-76
2022/01/15 03:40:25;;;;;;;27.83;12.27;;;3.20;82.30;;;;;;5018712;28;20205;-76
2022/01/15 03:42:54;;;;;;;28.23;13.60;;;3.20;82.40;;;;;;5016692;28;20274;-76
2022/01/15 03:45:22;;;;;;;26.95;12.43;;;3.30;82.30;;;;;;5020365;28;20197;-75
2022/01/15 03:47:50;;;;;;;22.90;12.88;;;3.30;82.30;;;;;;5019006;28;20229;-76
2022/01/15 03:50:19;;;;;;;31.17;12.18;;;3.30;82.30;;;;;;5017949;28;20220;-76
2022/01/15 03:52:47;;;;;;;29.13;12.40;;;3.30;82.20;;;;;;5020077;28;21223;-76
2022/01/15 03:55:16;;;;;;;30.10;14.23;;;3.30;82.20;;;;;;5019471;28;20197;-76
2022/01/15 03:57:44;;;;;;;31.20;13.27;;;3.40;82.20;;;;;;5018360;28;20225;-76
2022/01/15 04:00:17;;;;;;;29.73;13.75;;;3.30;82.20;;;;;;5014875;28;20198;-76
2022/01/15 04:02:47;;;;;;;26.67;12.70;;;3.40;82.20;;;;;;5019233;28;20300;-76
2022/01/15 04:05:16;;;;;;;24.65;13.27;;;3.40;82.20;;;;;;5014621;28;20280;-75
2022/01/15 04:07:44;;;;;;;28.73;12.23;;;3.40;82.10;;;;;;5014525;28;20229;-76
2022/01/15 04:10:13;;;;;;;32.83;12.57;;;3.40;82.10;;;;;;5016245;28;20233;-76
2022/01/15 04:12:41;;;;;;;37.70;13.63;;;3.40;82.10;;;;;;5017595;28;20262;-76
2022/01/15 04:15:13;;;;;;;30.80;13.35;;;3.40;82.10;;;;;;5000054;28;20209;-75
2022/01/15 04:17:43;;;;;;;30.67;13.00;;;3.30;81.90;;;;;;5016862;28;20273;-76
2022/01/15 04:20:12;;;;;;;36.10;14.90;;;3.30;82.00;;;;;;5016722;28;20197;-76
2022/01/15 04:22:40;;;;;;;33.88;12.93;;;3.30;82.10;;;;;;5018348;28;20874;-76
2022/01/15 04:25:09;;;;;;;33.85;14.15;;;3.20;82.00;;;;;;5017672;28;20626;-76
2022/01/15 04:27:38;;;;;;;40.53;14.50;;;3.20;82.00;;;;;;5015956;28;20233;-76
2022/01/15 04:30:08;;;;;;;36.55;14.40;;;3.20;82.10;;;;;;5017923;28;20209;-76
2022/01/15 04:32:36;;;;;;;45.05;15.35;;;3.10;82.10;;;;;;5017460;28;20250;-76
2022/01/15 04:35:06;;;;;;;39.22;14.48;;;3.10;82.10;;;;;;5016364;28;20739;-76
2022/01/15 04:37:38;;;;;;;37.85;15.73;;;3.10;82.20;;;;;;5018775;28;20225;-75
2022/01/15 04:40:08;;;;;;;48.42;16.30;;;3.00;82.20;;;;;;5018065;28;20243;-76
2022/01/15 04:42:36;;;;;;;39.95;16.58;;;3.00;82.10;;;;;;5016992;28;20683;-76
2022/01/15 04:45:07;;;;;;;38.42;14.13;;;3.00;82.20;;;;;;5020865;28;20201;-76
2022/01/15 04:47:35;;;;;;;38.58;15.07;;;3.00;82.50;;;;;;5017643;28;20237;-76
2022/01/15 04:50:10;;;;;;;39.55;15.25;;;3.00;82.60;;;;;;5010455;28;20228;-76
2022/01/15 04:52:38;;;;;;;39.25;15.80;;;3.10;82.70;;;;;;5015711;28;20204;-76
2022/01/15 04:55:07;;;;;;;39.65;14.88;;;3.20;82.70;;;;;;5014329;28;20205;-76
2022/01/15 04:57:36;;;;;;;35.15;14.13;;;3.20;82.70;;;;;;5016582;28;20233;-76
2022/01/15 05:00:05;;;;;;;32.85;14.00;;;3.30;82.60;;;;;;5016591;28;20213;-76
2022/01/15 05:02:33;;;;;;;35.75;15.77;;;3.30;82.50;;;;;;5016920;28;20213;-76
2022/01/15 05:05:01;;;;;;;36.58;15.02;;;3.30;82.60;;;;;;5015293;28;20237;-75
2022/01/15 05:07:30;;;;;;;34.95;14.55;;;3.30;82.50;;;;;;5016200;28;20237;-76
2022/01/15 05:09:58;;;;;;;39.78;14.32;;;3.30;82.60;;;;;;5017630;28;20224;-76
2022/01/15 05:12:29;;;;;;;36.38;14.80;;;3.30;82.50;;;;;;5014107;28;20209;-76
2022/01/15 05:14:57;;;;;;;34.08;15.45;;;3.40;82.50;;;;;;5017082;28;20280;-75
2022/01/15 05:17:25;;;;;;;40.22;15.45;;;3.40;82.50;;;;;;5016457;28;20233;-76
2022/01/15 05:19:53;;;;;;;32.50;15.35;;;3.40;82.40;;;;;;5014493;28;20201;-75
2022/01/15 05:22:21;;;;;;;38.45;16.33;;;3.30;82.30;;;;;;5018009;28;20267;-76
2022/01/15 05:24:50;;;;;;;37.05;15.30;;;3.30;82.40;;;;;;5017008;28;20327;-76
2022/01/15 05:27:18;;;;;;;49.45;22.30;;;3.30;82.40;;;;;;5018853;28;20267;-76
2022/01/15 05:29:46;;;;;;;60.95;25.08;;;3.30;82.50;;;;;;5014800;28;20683;-76
2022/01/15 05:32:14;;;;;;;47.33;20.92;;;3.30;82.50;;;;;;5015308;28;20244;-76
2022/01/15 05:34:42;;;;;;;37.15;16.73;;;3.30;82.50;;;;;;5015852;28;20240;-76
2022/01/15 05:37:10;;;;;;;43.33;17.17;;;3.30;82.50;;;;;;5015365;28;20700;-76
2022/01/15 05:39:38;;;;;;;37.22;15.35;;;3.30;82.60;;;;;;5017832;28;20593;-76
2022/01/15 05:42:08;;;;;;;32.92;15.05;;;3.40;82.60;;;;;;5016055;28;20201;-76
2022/01/15 05:44:36;;;;;;;41.55;15.57;;;3.40;82.80;;;;;;5013673;28;20267;-76
2022/01/15 05:47:05;;;;;;;39.47;16.33;;;3.40;82.60;;;;;;5018704;28;20229;-76
2022/01/15 05:49:33;;;;;;;35.30;15.45;;;3.40;82.60;;;;;;5014028;28;20275;-76
2022/01/15 05:52:01;;;;;;;37.25;14.75;;;3.50;82.80;;;;;;5014152;28;20349;-76
2022/01/15 05:54:29;;;;;;;46.70;16.90;;;3.50;82.80;;;;;;5018547;28;20205;-76
2022/01/15 05:56:57;;;;;;;50.90;18.90;;;3.50;82.60;;;;;;5017801;28;20260;-76
2022/01/15 05:59:26;;;;;;;93.22;31.25;;;3.50;82.60;;;;;;5023147;28;20216;-76
2022/01/15 06:01:54;;;;;;;77.28;31.27;;;3.50;82.60;;;;;;5019499;28;20718;-76
2022/01/15 06:04:22;;;;;;;54.45;22.92;;;3.50;82.60;;;;;;5019836;28;20291;-76
2022/01/15 06:06:50;;;;;;;49.60;20.65;;;3.50;82.50;;;;;;5018629;28;20559;-76
2022/01/15 06:09:21;;;;;;;46.13;18.83;;;3.50;82.40;;;;;;5026117;28;20201;-76
2022/01/15 06:11:50;;;;;;;46.20;18.60;;;3.40;82.50;;;;;;5017480;28;20280;-76
2022/01/15 06:14:18;;;;;;;43.47;17.33;;;3.40;82.80;;;;;;5016494;28;20683;-76
2022/01/15 06:16:47;;;;;;;46.95;18.73;;;3.50;82.80;;;;;;5016064;28;20238;-76
2022/01/15 06:19:15;;;;;;;51.22;20.67;;;3.50;82.60;;;;;;5019003;28;20260;-76
2022/01/15 06:21:43;;;;;;;56.25;22.50;;;3.40;82.40;;;;;;5019440;28;20259;-75
2022/01/15 06:24:11;;;;;;;53.33;22.30;;;3.40;82.40;;;;;;5022723;28;20201;-75
2022/01/15 06:26:39;;;;;;;45.10;19.85;;;3.30;82.40;;;;;;5022168;28;20285;-74
2022/01/15 06:29:07;;;;;;;52.75;22.45;;;3.30;82.60;;;;;;5022091;28;21073;-74
2022/01/15 06:31:35;;;;;;;57.60;21.35;;;3.30;82.80;;;;;;5022184;28;20230;-74
2022/01/15 06:34:04;;;;;;;48.92;19.45;;;3.30;82.90;;;;;;5019872;28;20205;-74
2022/01/15 06:36:32;;;;;;;52.95;18.90;;;3.40;82.90;;;;;;5020519;28;20276;-75
2022/01/15 06:39:00;;;;;;;58.47;23.67;;;3.40;83.00;;;;;;5020114;28;20213;-75
2022/01/15 06:41:28;;;;;;;45.22;18.75;;;3.40;82.90;;;;;;5018166;28;20194;-75
2022/01/15 06:43:56;;;;;;;55.38;21.33;;;3.40;82.90;;;;;;5016099;28;20195;-75
2022/01/15 06:46:24;;;;;;;49.15;21.30;;;3.30;82.90;;;;;;5022898;28;20767;-75
2022/01/15 06:48:51;;;;;;;75.18;28.40;;;3.30;82.80;;;;;;5021821;28;20233;-75
2022/01/15 06:51:21;;;;;;;59.95;28.05;;;3.30;82.90;;;;;;5024747;28;20271;-75
2022/01/15 06:53:49;;;;;;;58.95;22.80;;;3.20;83.00;;;;;;5022539;28;20201;-75
2022/01/15 06:56:16;;;;;;;56.25;19.98;;;3.20;83.00;;;;;;5022838;28;20758;-75
2022/01/15 06:58:46;;;;;;;53.58;19.40;;;3.30;83.10;;;;;;5022221;28;20235;-75
2022/01/15 07:01:13;;;;;;;50.80;19.05;;;3.30;83.10;;;;;;5023404;28;20260;-75
2022/01/15 07:03:42;;;;;;;63.72;21.45;;;3.30;83.20;;;;;;5016191;28;20559;-75
2022/01/15 07:06:09;;;;;;;58.58;20.83;;;3.30;83.20;;;;;;5018725;28;20201;-75
2022/01/15 07:08:39;;;;;;;68.18;31.50;;;3.30;83.30;;;;;;5022120;28;20234;-75
2022/01/15 07:11:07;;;;;;;73.03;33.63;;;3.40;83.30;;;;;;5023914;28;20347;-75
2022/01/15 07:13:34;;;;;;;75.85;30.20;;;3.40;83.30;;;;;;5009146;28;20279;-75
2022/01/15 07:16:03;;;;;;;55.50;25.15;;;3.40;83.20;;;;;;5020888;28;20197;-75
2022/01/15 07:18:32;;;;;;;53.35;22.13;;;3.40;83.30;;;;;;5022510;28;20272;-75
2022/01/15 07:21:00;;;;;;;42.08;20.83;;;3.40;83.40;;;;;;5022851;28;20251;-75
2022/01/15 07:23:27;;;;;;;37.70;18.70;;;3.40;83.50;;;;;;5021708;28;20210;-75
2022/01/15 07:25:57;;;;;;;38.45;17.88;;;3.50;83.50;;;;;;5016980;28;20205;-76
2022/01/15 07:28:27;;;;;;;35.83;16.65;;;3.50;83.50;;;;;;5023290;28;20216;-75
2022/01/15 07:30:55;;;;;;;33.97;16.33;;;3.50;83.40;;;;;;5020565;28;20217;-75
2022/01/15 07:33:24;;;;;;;40.83;17.40;;;3.60;83.40;;;;;;5019162;28;20209;-75
2022/01/15 07:35:52;;;;;;;45.20;19.42;;;3.60;83.40;;;;;;5022147;28;20806;-75
2022/01/15 07:38:21;;;;;;;44.75;17.25;;;3.60;83.40;;;;;;5018595;28;20743;-75
2022/01/15 07:40:49;;;;;;;41.60;17.27;;;3.70;83.30;;;;;;5021178;28;20209;-75
2022/01/15 07:43:18;;;;;;;38.03;16.13;;;3.70;83.30;;;;;;5021628;28;20659;-75
2022/01/15 07:45:46;;;;;;;34.50;15.27;;;3.70;83.30;;;;;;5018491;28;20212;-75
2022/01/15 07:48:14;;;;;;;41.67;15.18;;;3.70;83.30;;;;;;5020379;28;20673;-74
2022/01/15 07:50:42;;;;;;;31.60;14.30;;;3.70;83.30;;;;;;5017558;28;20274;-74
2022/01/15 07:53:10;;;;;;;32.50;13.98;;;3.70;83.30;;;;;;5017588;28;20210;-74
2022/01/15 07:55:38;;;;;;;33.70;14.38;;;3.80;83.20;;;;;;5018205;28;20674;-74
2022/01/15 07:58:07;;;;;;;31.98;15.68;;;3.80;83.20;;;;;;5020597;28;20283;-74
2022/01/15 08:00:36;;;;;;;36.08;16.25;;;3.80;83.30;;;;;;5020575;28;20239;-74
2022/01/15 08:03:04;;;;;;;39.00;15.98;;;3.80;83.30;;;;;;5015003;28;20201;-74
2022/01/15 08:05:33;;;;;;;39.55;15.02;;;3.80;83.30;;;;;;5004524;28;20609;-74
2022/01/15 08:08:01;;;;;;;34.08;16.42;;;3.80;83.20;;;;;;4937247;28;20703;-74
2022/01/15 08:10:29;;;;;;;27.52;14.90;;;3.80;83.20;;;;;;5013322;28;20254;-74
2022/01/15 08:12:57;;;;;;;38.03;15.80;;;3.80;83.20;;;;;;5007789;28;20919;-76
2022/01/15 08:15:26;;;;;;;34.15;13.85;;;3.80;83.20;;;;;;5021206;28;20197;-74
2022/01/15 08:17:55;;;;;;;41.22;16.85;;;3.80;83.10;;;;;;5020676;28;20220;-74
2022/01/15 08:20:23;;;;;;;41.28;16.05;;;3.80;83.20;;;;;;5021571;28;20678;-73
2022/01/15 08:22:51;;;;;;;36.75;14.60;;;3.80;83.10;;;;;;5016317;28;20194;-74
2022/01/15 08:25:20;;;;;;;36.05;15.23;;;3.80;83.20;;;;;;5017271;28;20210;-74
2022/01/15 08:27:48;;;;;;;34.70;14.63;;;3.80;83.30;;;;;;5015919;28;20225;-77
2022/01/15 08:30:17;;;;;;;45.30;16.08;;;3.80;83.30;;;;;;5024087;28;20209;-75
2022/01/15 08:32:45;;;;;;;39.80;15.07;;;3.80;83.20;;;;;;5025430;28;20327;-74
2022/01/15 08:35:15;;;;;;;43.65;16.02;;;3.80;83.20;;;;;;5020305;28;20205;-74
2022/01/15 08:37:43;;;;;;;38.13;15.70;;;3.90;83.20;;;;;;5021487;28;20229;-74
2022/01/15 08:40:12;;;;;;;40.45;16.95;;;3.90;83.20;;;;;;5019506;28;20596;-76
2022/01/15 08:42:41;;;;;;;36.13;15.07;;;3.90;83.20;;;;;;5019625;28;20193;-74
2022/01/15 08:45:11;;;;;;;40.10;16.40;;;3.90;83.30;;;;;;5017144;28;20198;-74
2022/01/15 08:47:39;;;;;;;37.95;15.00;;;3.90;83.30;;;;;;5016286;28;20248;-74
2022/01/15 08:50:10;;;;;;;37.95;15.95;;;3.90;83.30;;;;;;5016530;28;20239;-74
2022/01/15 08:52:40;;;;;;;38.67;15.48;;;3.90;83.20;;;;;;5017101;28;20216;-74
2022/01/15 08:55:09;;;;;;;35.33;17.25;;;3.90;83.30;;;;;;5019673;28;20202;-74
2022/01/15 08:57:37;;;;;;;51.70;27.42;;;4.00;83.30;;;;;;5017304;28;20232;-74
2022/01/15 09:00:08;;;;;;;61.65;32.97;;;3.90;83.30;;;;;;5015892;28;20205;-73
2022/01/15 09:02:36;;;;;;;43.80;26.48;;;4.00;83.30;;;;;;5013314;28;20255;-73
2022/01/15 09:05:04;;;;;;;30.52;17.58;;;4.00;83.30;;;;;;5014467;28;20674;-73
2022/01/15 09:07:35;;;;;;;61.40;33.38;;;3.90;83.10;;;;;;5018810;28;20236;-73
2022/01/15 09:10:05;;;;;;;43.60;23.05;;;3.90;83.10;;;;;;5015972;28;20213;-73
2022/01/15 09:12:33;;;;;;;67.28;36.13;;;3.90;83.20;;;;;;5018715;28;20980;-74
2022/01/15 09:15:22;;;;;;;75.07;37.72;;;3.80;83.30;;;;;;5019043;28;20233;-74
2022/01/15 09:17:54;;;;;;;31.25;20.13;;;3.80;83.30;;;;;;5019053;28;20225;-75
2022/01/15 09:20:22;;;;;;;43.80;23.70;;;3.80;83.40;;;;;;5012983;28;20205;-76
2022/01/15 09:22:50;;;;;;;37.90;23.27;;;3.80;83.30;;;;;;5020368;28;20834;-75
2022/01/15 09:25:19;;;;;;;32.72;20.08;;;3.80;83.40;;;;;;5017902;28;20202;-75
2022/01/15 09:30:33;;;;;;;27.60;16.80;;;3.80;83.60;;;;;;5015331;28;20283;-76
2022/01/15 09:33:03;;;;;;;31.40;19.67;;;3.80;83.70;;;;;;5012120;28;20272;-75
2022/01/15 09:35:33;;;;;;;24.35;14.55;;;3.80;83.80;;;;;;5014321;28;20216;-76
2022/01/15 09:38:05;;;;;;;35.05;18.52;;;3.80;83.70;;;;;;5019306;28;20228;-75
2022/01/15 09:40:36;;;;;;;32.10;17.95;;;3.80;83.70;;;;;;5014703;28;20211;-74
2022/01/15 09:43:04;;;;;;;25.00;14.18;;;3.80;83.70;;;;;;5020207;28;20193;-75
2022/01/15 09:45:35;;;;;;;26.77;14.80;;;3.80;84.00;;;;;;5021268;28;20216;-75
2022/01/15 09:48:05;;;;;;;29.15;16.65;;;3.80;83.80;;;;;;5013248;28;20696;-75
2022/01/15 09:50:35;;;;;;;34.53;19.73;;;3.80;83.80;;;;;;5015808;28;20816;-75
2022/01/15 09:53:04;;;;;;;23.65;14.15;;;3.80;83.90;;;;;;5015611;28;20221;-74
2022/01/15 09:55:32;;;;;;;21.08;12.20;;;3.80;83.90;;;;;;5019981;28;20614;-72
2022/01/15 09:58:01;;;;;;;20.95;10.43;;;3.80;84.00;;;;;;5016640;28;20606;-72
2022/01/15 10:00:30;;;;;;;22.27;10.55;;;3.80;83.90;;;;;;5020844;28;20215;-73
2022/01/15 10:03:01;;;;;;;18.48;10.82;;;3.80;84.00;;;;;;5017892;28;20281;-75
2022/01/15 10:05:30;;;;;;;23.00;10.93;;;3.80;84.20;;;;;;5015400;28;20198;-75
2022/01/15 10:08:00;;;;;;;31.17;15.30;;;3.80;84.20;;;;;;5018286;28;20235;-75
2022/01/15 10:10:30;;;;;;;23.48;11.18;;;3.80;84.20;;;;;;5015645;28;20205;-75
2022/01/15 10:13:13;;;;;;;15.48;7.60;;;3.90;84.20;;;;;;5014373;28;20278;-74
2022/01/15 10:15:45;;;;;;;19.10;10.63;;;3.90;84.30;;;;;;5011919;28;20259;-74
2022/01/15 10:18:25;;;;;;;18.23;8.93;;;3.90;84.30;;;;;;5015936;28;20229;-75
2022/01/15 10:20:55;;;;;;;16.60;8.55;;;4.00;84.40;;;;;;5013839;28;20209;-75
2022/01/15 10:23:25;;;;;;;14.93;8.10;;;4.00;84.50;;;;;;5019036;28;20563;-75
2022/01/15 10:26:12;;;;;;;14.63;8.68;;;4.00;84.20;;;;;;5018450;28;20662;-75
2022/01/15 10:28:59;;;;;;;16.75;10.63;;;3.90;84.30;;;;;;5016600;28;20237;-75
2022/01/15 10:31:28;;;;;;;18.98;11.70;;;3.90;84.40;;;;;;5011260;28;20232;-75
2022/01/15 10:33:58;;;;;;;13.60;8.13;;;3.90;84.50;;;;;;5018486;28;20212;-74
2022/01/15 10:36:27;;;;;;;19.45;10.13;;;3.90;84.40;;;;;;5020985;28;20213;-74
2022/01/15 10:39:13;;;;;;;16.02;9.90;;;3.90;84.40;;;;;;5018249;28;20289;-75
2022/01/15 10:41:41;;;;;;;16.08;9.40;;;3.90;84.70;;;;;;5023032;28;20204;-74
2022/01/15 10:44:33;;;;;;;24.02;11.75;;;3.90;84.70;;;;;;5022367;28;20960;-75
2022/01/15 10:47:04;;;;;;;21.38;11.70;;;3.90;84.70;;;;;;5020602;28;20224;-75
2022/01/15 10:49:33;;;;;;;24.38;12.05;;;3.90;84.50;;;;;;5022138;28;20205;-75
2022/01/15 10:52:17;;;;;;;23.08;9.90;;;3.80;84.70;;;;;;5023492;28;20201;-75
2022/01/15 10:55:00;;;;;;;22.40;10.52;;;3.80;84.80;;;;;;5017981;28;20218;-75
2022/01/15 10:57:31;;;;;;;19.35;10.07;;;3.90;85.30;;;;;;5018764;28;20228;-75
2022/01/15 11:00:14;;;;;;;24.63;11.73;;;4.10;85.30;;;;;;5016706;28;20209;-75
2022/01/15 11:02:45;;;;;;;25.20;12.93;;;4.10;85.00;;;;;;5018626;28;20201;-74
2022/01/15 11:05:25;;;;;;;18.73;11.55;;;4.10;84.90;;;;;;5007781;28;20300;-75
2022/01/15 11:07:54;;;;;;;22.05;12.50;;;4.10;84.90;;;;;;5019150;28;20290;-75
2022/01/15 11:10:22;;;;;;;19.73;10.23;;;4.10;84.90;;;;;;5019625;28;20491;-75
2022/01/15 11:12:50;;;;;;;19.23;10.10;;;4.10;84.80;;;;;;5018585;28;20783;-75
2022/01/15 11:15:19;;;;;;;17.20;9.75;;;4.10;84.90;;;;;;5024515;28;20264;-74
2022/01/15 11:17:47;;;;;;;19.77;10.35;;;4.10;84.80;;;;;;5019588;28;20294;-74
2022/01/15 11:20:17;;;;;;;21.92;11.68;;;4.10;84.90;;;;;;5024258;28;20205;-75
2022/01/15 11:22:48;;;;;;;20.33;11.30;;;4.10;84.90;;;;;;5016724;28;20728;-75
2022/01/15 11:25:16;;;;;;;16.17;10.45;;;4.10;85.00;;;;;;5004343;28;20234;-75
2022/01/15 11:27:44;;;;;;;24.42;12.00;;;4.10;85.00;;;;;;5018293;28;20216;-75
2022/01/15 11:30:13;;;;;;;22.35;12.35;;;4.10;85.00;;;;;;5007433;28;20198;-75
2022/01/15 11:32:44;;;;;;;26.00;12.85;;;4.10;85.10;;;;;;5017118;28;20273;-75
2022/01/15 11:35:13;;;;;;;17.25;10.32;;;4.10;85.00;;;;;;5016739;28;20647;-75
2022/01/15 11:37:45;;;;;;;15.68;8.02;;;4.10;84.90;;;;;;5019769;28;20229;-75
2022/01/15 11:40:43;;;;;;;18.75;10.80;;;4.10;84.90;;;;;;5018831;28;20201;-75
2022/01/15 11:43:39;;;;;;;19.55;10.50;;;4.10;85.00;;;;;;4974230;28;20221;-75
2022/01/15 11:46:23;;;;;;;21.95;12.23;;;4.10;85.10;;;;;;5020949;28;20229;-75
2022/01/15 11:48:52;;;;;;;22.98;10.65;;;4.10;85.30;;;;;;5020503;28;20225;-75
2022/01/15 11:51:27;;;;;;;15.88;9.55;;;4.10;85.10;;;;;;5020911;28;20255;-75
2022/01/15 11:54:00;;;;;;;19.02;7.90;;;4.10;85.20;;;;;;5016355;28;20216;-75
2022/01/15 11:56:37;;;;;;;16.35;11.02;;;4.10;85.10;;;;;;5017989;28;20210;-75
2022/01/15 11:59:47;;;;;;;22.13;12.20;;;4.10;85.10;;;;;;5017376;28;20201;-75
2022/01/15 12:02:30;;;;;;;19.90;12.80;;;4.10;85.10;;;;;;5018967;28;21061;-75
2022/01/15 12:05:27;;;;;;;23.08;13.77;;;4.10;85.20;;;;;;5014682;28;20263;-75
2022/01/15 12:08:30;;;;;;;25.00;15.02;;;4.10;85.30;;;;;;5020855;28;20279;-75
2022/01/15 12:11:03;;;;;;;20.80;12.90;;;4.10;85.40;;;;;;4944301;29;20258;-75
2022/01/15 12:13:43;;;;;;;14.13;8.68;;;4.10;85.30;;;;;;5007668;28;20592;-75
2022/01/15 12:16:37;;;;;;;17.17;11.93;;;4.10;85.20;;;;;;5018964;28;20189;-75
2022/01/15 12:19:07;;;;;;;22.73;12.50;;;4.10;85.30;;;;;;5016699;28;20194;-75
2022/01/15 12:21:46;;;;;;;19.30;12.07;;;4.10;85.20;;;;;;5014898;28;20234;-75
2022/01/15 12:24:38;;;;;;;14.70;8.27;;;4.10;85.30;;;;;;5019293;28;20200;-75
2022/01/15 12:27:09;;;;;;;20.00;11.65;;;4.10;85.40;;;;;;5021789;28;20225;-75
2022/01/15 12:29:38;;;;;;;22.73;13.35;;;4.10;85.40;;;;;;5019136;28;20745;-75
2022/01/15 12:32:06;;;;;;;25.63;16.50;;;4.10;85.40;;;;;;5017539;28;20201;-75
2022/01/15 12:34:36;;;;;;;33.15;19.05;;;4.10;85.60;;;;;;5017419;28;20237;-75
2022/01/15 12:37:04;;;;;;;18.98;12.00;;;4.20;85.60;;;;;;5020791;28;20287;-75
2022/01/15 12:39:37;;;;;;;16.63;9.05;;;4.20;85.50;;;;;;5023298;28;20266;-75
2022/01/15 12:42:07;;;;;;;20.27;10.73;;;4.20;85.50;;;;;;5020100;28;20625;-75
2022/01/15 12:44:43;;;;;;;15.77;9.40;;;4.20;85.50;;;;;;5016299;28;20197;-75
2022/01/15 12:47:12;;;;;;;29.10;18.77;;;4.20;85.50;;;;;;5011497;28;20733;-74
2022/01/15 12:49:42;;;;;;;16.50;11.45;;;4.20;85.50;;;;;;5019754;28;20421;-74
2022/01/15 12:52:21;;;;;;;18.83;11.48;;;4.30;85.50;;;;;;5018513;28;20208;-75
2022/01/15 12:54:51;;;;;;;24.00;14.32;;;4.30;85.60;;;;;;5014143;28;20217;-75
2022/01/15 12:57:46;;;;;;;17.50;11.82;;;4.30;85.50;;;;;;5021151;28;20282;-75
2022/01/15 13:00:18;;;;;;;22.00;14.00;;;4.30;85.50;;;;;;5005725;28;20258;-75
2022/01/15 13:02:47;;;;;;;19.60;12.95;;;4.30;85.50;;;;;;5019657;28;20212;-75
2022/01/15 13:05:20;;;;;;;21.38;13.82;;;4.30;85.50;;;;;;5017076;28;20198;-74
2022/01/15 13:07:54;;;;;;;21.17;14.68;;;4.30;85.50;;;;;;5018972;28;20221;-74
2022/01/15 13:10:45;;;;;;;14.95;10.13;;;4.30;85.60;;;;;;5000132;28;20628;-73